Main page
METAR-TAF:

METAR-TAF

Airports :

Tan Son Nhat International Airport

Ho Chi Minh City, Vietnam

latitude: 10-49N, longitude: 106-40E, elevation: 19 m

Current weather observation

The report was made 29 minutes ago, at 00:00 UTC
Wind 2 kt from variable directions
Temperature 25°C
Humidity 79%
Pressure 1014 hPa
Visibility: 8000 m

METAR: VVTS 180000Z VRB02KT 8000 ////// 25/21 Q1014 NOSIG

Time: 07:29 (00:29 UTC)

Forecast

The report was made 1 hour and 29 minutes ago, at 23:00 UTC
Forecast valid from 18 at 00 UTC to 19 at 06 UTC
Wind 10 kt from the East
Visibility 10 km or more
Scattered clouds at a height of 1700 ft

TAF: VVTS 172300Z 1800/1906 08010KT 9999 SCT017

Weather observations and forecasts of more than 4000 airports (METAR and TAF reports).

The available stations are represented by yellow and red dots on the map.

Hover mouse over dot to see the name of the station.

Then click to see weather observations and forecasts.

To change the map : click on the green buttons with a black cross to zoom in, on the green button with a dash to zoom out, or on the green arrows for adjacent maps.


METAR-TAF: